sensor_id;sensor_type;location;lat;lon;timestamp;P1;durP1;ratioP1;P2;durP2;ratioP2
15645;SDS011;7922;43.622;1.476;2023-06-14T00:01:07;4.23;;;3.87;;
15645;SDS011;7922;43.622;1.476;2023-06-14T00:03:32;4.97;;;4.00;;
15645;SDS011;7922;43.622;1.476;2023-06-14T00:05:57;4.57;;;4.07;;
15645;SDS011;7922;43.622;1.476;2023-06-14T00:08:23;4.97;;;3.90;;
15645;SDS011;7922;43.622;1.476;2023-06-14T00:10:48;3.90;;;3.60;;
15645;SDS011;7922;43.622;1.476;2023-06-14T00:13:14;3.80;;;3.50;;
15645;SDS011;7922;43.622;1.476;2023-06-14T00:15:39;4.60;;;4.20;;
15645;SDS011;7922;43.622;1.476;2023-06-14T00:18:04;4.17;;;3.87;;
15645;SDS011;7922;43.622;1.476;2023-06-14T00:20:30;3.90;;;3.50;;
15645;SDS011;7922;43.622;1.476;2023-06-14T00:22:57;4.00;;;3.70;;
15645;SDS011;7922;43.622;1.476;2023-06-14T00:25:23;5.33;;;3.67;;
15645;SDS011;7922;43.622;1.476;2023-06-14T00:27:48;4.33;;;3.93;;
15645;SDS011;7922;43.622;1.476;2023-06-14T00:30:14;5.50;;;4.30;;
15645;SDS011;7922;43.622;1.476;2023-06-14T00:32:39;4.17;;;3.80;;
15645;SDS011;7922;43.622;1.476;2023-06-14T00:35:04;4.50;;;3.87;;
15645;SDS011;7922;43.622;1.476;2023-06-14T00:37:30;5.17;;;4.70;;
15645;SDS011;7922;43.622;1.476;2023-06-14T00:39:55;4.77;;;4.37;;
15645;SDS011;7922;43.622;1.476;2023-06-14T00:42:24;5.03;;;4.23;;
15645;SDS011;7922;43.622;1.476;2023-06-14T00:44:50;4.10;;;3.77;;
15645;SDS011;7922;43.622;1.476;2023-06-14T00:47:16;4.70;;;4.10;;
15645;SDS011;7922;43.622;1.476;2023-06-14T00:49:41;4.83;;;4.00;;
15645;SDS011;7922;43.622;1.476;2023-06-14T00:52:07;3.97;;;3.67;;
15645;SDS011;7922;43.622;1.476;2023-06-14T00:54:32;4.10;;;3.80;;
15645;SDS011;7922;43.622;1.476;2023-06-14T00:56:57;4.73;;;4.33;;
15645;SDS011;7922;43.622;1.476;2023-06-14T00:59:23;4.77;;;4.10;;
15645;SDS011;7922;43.622;1.476;2023-06-14T01:01:48;5.10;;;4.50;;
15645;SDS011;7922;43.622;1.476;2023-06-14T01:04:13;4.17;;;3.77;;
15645;SDS011;7922;43.622;1.476;2023-06-14T01:13:19;6.73;;;5.47;;
15645;SDS011;7922;43.622;1.476;2023-06-14T01:15:46;6.70;;;6.00;;
15645;SDS011;7922;43.622;1.476;2023-06-14T01:18:12;6.37;;;5.77;;
15645;SDS011;7922;43.622;1.476;2023-06-14T01:20:38;8.60;;;6.23;;
15645;SDS011;7922;43.622;1.476;2023-06-14T01:23:04;7.07;;;5.60;;
15645;SDS011;7922;43.622;1.476;2023-06-14T01:25:29;7.17;;;6.57;;
15645;SDS011;7922;43.622;1.476;2023-06-14T01:27:55;9.03;;;6.60;;
15645;SDS011;7922;43.622;1.476;2023-06-14T01:30:26;7.40;;;6.70;;
15645;SDS011;7922;43.622;1.476;2023-06-14T01:32:52;7.83;;;7.03;;
15645;SDS011;7922;43.622;1.476;2023-06-14T01:35:19;6.80;;;6.17;;
15645;SDS011;7922;43.622;1.476;2023-06-14T01:37:46;7.27;;;6.60;;
15645;SDS011;7922;43.622;1.476;2023-06-14T01:40:13;7.90;;;7.23;;
15645;SDS011;7922;43.622;1.476;2023-06-14T01:42:40;7.60;;;6.90;;
15645;SDS011;7922;43.622;1.476;2023-06-14T01:45:06;7.73;;;6.90;;
15645;SDS011;7922;43.622;1.476;2023-06-14T01:47:32;11.53;;;7.67;;
15645;SDS011;7922;43.622;1.476;2023-06-14T01:49:58;7.97;;;7.20;;
15645;SDS011;7922;43.622;1.476;2023-06-14T01:52:24;8.53;;;7.40;;
15645;SDS011;7922;43.622;1.476;2023-06-14T01:54:52;8.20;;;7.33;;
15645;SDS011;7922;43.622;1.476;2023-06-14T01:57:17;8.20;;;7.50;;
15645;SDS011;7922;43.622;1.476;2023-06-14T01:59:42;8.17;;;7.30;;
15645;SDS011;7922;43.622;1.476;2023-06-14T02:02:08;8.93;;;8.00;;
15645;SDS011;7922;43.622;1.476;2023-06-14T02:04:33;9.77;;;7.07;;
15645;SDS011;7922;43.622;1.476;2023-06-14T02:06:59;9.00;;;7.30;;
15645;SDS011;7922;43.622;1.476;2023-06-14T02:09:24;7.63;;;6.93;;
15645;SDS011;7922;43.622;1.476;2023-06-14T02:11:50;7.50;;;6.90;;
15645;SDS011;7922;43.622;1.476;2023-06-14T02:14:15;9.87;;;7.20;;
15645;SDS011;7922;43.622;1.476;2023-06-14T02:16:40;8.10;;;7.40;;
15645;SDS011;7922;43.622;1.476;2023-06-14T02:19:06;8.03;;;7.37;;
15645;SDS011;7922;43.622;1.476;2023-06-14T02:21:31;8.47;;;7.27;;
15645;SDS011;7922;43.622;1.476;2023-06-14T02:23:56;7.90;;;7.20;;
15645;SDS011;7922;43.622;1.476;2023-06-14T02:26:21;9.93;;;7.50;;
15645;SDS011;7922;43.622;1.476;2023-06-14T02:28:47;8.73;;;7.93;;
15645;SDS011;7922;43.622;1.476;2023-06-14T02:31:12;8.20;;;7.43;;
15645;SDS011;7922;43.622;1.476;2023-06-14T02:33:37;9.00;;;8.07;;
15645;SDS011;7922;43.622;1.476;2023-06-14T02:36:03;8.10;;;7.37;;
15645;SDS011;7922;43.622;1.476;2023-06-14T02:38:28;8.37;;;7.47;;
15645;SDS011;7922;43.622;1.476;2023-06-14T02:40:53;8.57;;;7.73;;
15645;SDS011;7922;43.622;1.476;2023-06-14T02:43:18;8.43;;;7.13;;
15645;SDS011;7922;43.622;1.476;2023-06-14T02:45:44;8.97;;;7.53;;
15645;SDS011;7922;43.622;1.476;2023-06-14T02:48:09;8.40;;;7.53;;
15645;SDS011;7922;43.622;1.476;2023-06-14T02:50:34;8.77;;;7.97;;
15645;SDS011;7922;43.622;1.476;2023-06-14T02:52:59;8.50;;;7.23;;
15645;SDS011;7922;43.622;1.476;2023-06-14T02:55:25;7.97;;;7.20;;
15645;SDS011;7922;43.622;1.476;2023-06-14T02:57:50;8.37;;;7.37;;
15645;SDS011;7922;43.622;1.476;2023-06-14T03:00:16;8.43;;;7.60;;
15645;SDS011;7922;43.622;1.476;2023-06-14T03:02:41;8.37;;;7.00;;
15645;SDS011;7922;43.622;1.476;2023-06-14T03:05:07;7.97;;;7.37;;
15645;SDS011;7922;43.622;1.476;2023-06-14T03:07:32;8.30;;;7.53;;
15645;SDS011;7922;43.622;1.476;2023-06-14T03:09:57;8.67;;;7.07;;
15645;SDS011;7922;43.622;1.476;2023-06-14T03:12:23;7.43;;;6.83;;
15645;SDS011;7922;43.622;1.476;2023-06-14T03:14:48;9.30;;;7.70;;
15645;SDS011;7922;43.622;1.476;2023-06-14T03:17:13;7.90;;;7.30;;
15645;SDS011;7922;43.622;1.476;2023-06-14T03:19:39;7.20;;;6.50;;
15645;SDS011;7922;43.622;1.476;2023-06-14T03:22:04;7.50;;;6.70;;
15645;SDS011;7922;43.622;1.476;2023-06-14T03:24:29;8.37;;;7.40;;
15645;SDS011;7922;43.622;1.476;2023-06-14T03:26:55;7.73;;;7.10;;
15645;SDS011;7922;43.622;1.476;2023-06-14T03:29:20;7.50;;;6.77;;
15645;SDS011;7922;43.622;1.476;2023-06-14T03:34:40;7.07;;;5.90;;
15645;SDS011;7922;43.622;1.476;2023-06-14T03:37:05;7.00;;;6.40;;
15645;SDS011;7922;43.622;1.476;2023-06-14T03:39:31;7.30;;;5.80;;
15645;SDS011;7922;43.622;1.476;2023-06-14T03:41:56;9.53;;;5.80;;
15645;SDS011;7922;43.622;1.476;2023-06-14T03:44:21;7.00;;;6.37;;
15645;SDS011;7922;43.622;1.476;2023-06-14T03:46:47;7.00;;;5.87;;
15645;SDS011;7922;43.622;1.476;2023-06-14T03:49:12;6.20;;;5.53;;
15645;SDS011;7922;43.622;1.476;2023-06-14T03:51:38;6.60;;;6.10;;
15645;SDS011;7922;43.622;1.476;2023-06-14T03:54:03;6.97;;;6.27;;
15645;SDS011;7922;43.622;1.476;2023-06-14T03:56:28;6.17;;;5.50;;
15645;SDS011;7922;43.622;1.476;2023-06-14T03:58:54;6.57;;;5.97;;
15645;SDS011;7922;43.622;1.476;2023-06-14T04:01:19;8.07;;;5.90;;
15645;SDS011;7922;43.622;1.476;2023-06-14T04:03:44;6.67;;;5.97;;
15645;SDS011;7922;43.622;1.476;2023-06-14T04:06:10;7.10;;;6.50;;
15645;SDS011;7922;43.622;1.476;2023-06-14T04:08:35;7.70;;;6.50;;
15645;SDS011;7922;43.622;1.476;2023-06-14T04:11:01;7.03;;;6.27;;
15645;SDS011;7922;43.622;1.476;2023-06-14T04:13:26;6.50;;;5.90;;
15645;SDS011;7922;43.622;1.476;2023-06-14T04:15:52;7.30;;;6.40;;
15645;SDS011;7922;43.622;1.476;2023-06-14T04:18:17;8.50;;;6.63;;
15645;SDS011;7922;43.622;1.476;2023-06-14T04:20:42;7.77;;;6.97;;
15645;SDS011;7922;43.622;1.476;2023-06-14T04:23:14;8.73;;;7.27;;
15645;SDS011;7922;43.622;1.476;2023-06-14T04:25:40;6.97;;;6.40;;
15645;SDS011;7922;43.622;1.476;2023-06-14T04:28:05;8.30;;;7.60;;
15645;SDS011;7922;43.622;1.476;2023-06-14T04:30:31;8.57;;;7.77;;
15645;SDS011;7922;43.622;1.476;2023-06-14T04:32:56;9.00;;;8.10;;
15645;SDS011;7922;43.622;1.476;2023-06-14T04:35:22;8.83;;;8.03;;
15645;SDS011;7922;43.622;1.476;2023-06-14T04:37:47;9.83;;;8.37;;
15645;SDS011;7922;43.622;1.476;2023-06-14T04:40:13;10.00;;;9.10;;
15645;SDS011;7922;43.622;1.476;2023-06-14T04:42:38;10.97;;;9.90;;
15645;SDS011;7922;43.622;1.476;2023-06-14T04:45:03;12.00;;;10.80;;
15645;SDS011;7922;43.622;1.476;2023-06-14T04:47:29;11.40;;;10.37;;
15645;SDS011;7922;43.622;1.476;2023-06-14T04:49:55;13.27;;;10.57;;
15645;SDS011;7922;43.622;1.476;2023-06-14T04:52:23;12.03;;;10.67;;
15645;SDS011;7922;43.622;1.476;2023-06-14T04:54:49;13.10;;;11.80;;
15645;SDS011;7922;43.622;1.476;2023-06-14T04:57:14;13.43;;;12.03;;
15645;SDS011;7922;43.622;1.476;2023-06-14T04:59:40;12.67;;;11.40;;
15645;SDS011;7922;43.622;1.476;2023-06-14T05:02:05;15.60;;;11.63;;
15645;SDS011;7922;43.622;1.476;2023-06-14T05:04:31;13.47;;;12.07;;
15645;SDS011;7922;43.622;1.476;2023-06-14T05:06:56;14.97;;;12.43;;
15645;SDS011;7922;43.622;1.476;2023-06-14T05:09:21;14.70;;;12.27;;
15645;SDS011;7922;43.622;1.476;2023-06-14T05:11:47;15.23;;;13.73;;
15645;SDS011;7922;43.622;1.476;2023-06-14T05:14:12;16.33;;;13.57;;
15645;SDS011;7922;43.622;1.476;2023-06-14T05:16:37;14.87;;;13.37;;
15645;SDS011;7922;43.622;1.476;2023-06-14T05:19:03;15.87;;;13.90;;
15645;SDS011;7922;43.622;1.476;2023-06-14T05:21:28;15.37;;;13.80;;
15645;SDS011;7922;43.622;1.476;2023-06-14T05:23:53;15.60;;;13.97;;
15645;SDS011;7922;43.622;1.476;2023-06-14T05:26:19;16.57;;;14.37;;
15645;SDS011;7922;43.622;1.476;2023-06-14T05:28:44;17.03;;;15.13;;
15645;SDS011;7922;43.622;1.476;2023-06-14T05:31:09;15.37;;;13.87;;
15645;SDS011;7922;43.622;1.476;2023-06-14T05:33:34;17.70;;;14.30;;
15645;SDS011;7922;43.622;1.476;2023-06-14T05:36:00;16.50;;;14.30;;
15645;SDS011;7922;43.622;1.476;2023-06-14T05:38:25;18.27;;;16.37;;
15645;SDS011;7922;43.622;1.476;2023-06-14T05:40:50;17.07;;;15.27;;
15645;SDS011;7922;43.622;1.476;2023-06-14T05:43:16;15.40;;;13.80;;
15645;SDS011;7922;43.622;1.476;2023-06-14T05:45:41;17.30;;;14.60;;
15645;SDS011;7922;43.622;1.476;2023-06-14T05:48:06;17.83;;;14.67;;
15645;SDS011;7922;43.622;1.476;2023-06-14T05:50:32;16.23;;;14.23;;
15645;SDS011;7922;43.622;1.476;2023-06-14T05:52:57;18.63;;;14.93;;
15645;SDS011;7922;43.622;1.476;2023-06-14T05:55:22;17.67;;;15.53;;
15645;SDS011;7922;43.622;1.476;2023-06-14T05:57:47;17.00;;;15.20;;
15645;SDS011;7922;43.622;1.476;2023-06-14T06:00:13;18.27;;;14.90;;
15645;SDS011;7922;43.622;1.476;2023-06-14T06:02:40;16.13;;;14.47;;
15645;SDS011;7922;43.622;1.476;2023-06-14T06:05:06;16.97;;;15.20;;
15645;SDS011;7922;43.622;1.476;2023-06-14T06:07:31;17.33;;;15.33;;
15645;SDS011;7922;43.622;1.476;2023-06-14T06:09:57;15.97;;;14.37;;
15645;SDS011;7922;43.622;1.476;2023-06-14T06:12:22;21.97;;;16.20;;
15645;SDS011;7922;43.622;1.476;2023-06-14T06:14:48;18.13;;;15.80;;
15645;SDS011;7922;43.622;1.476;2023-06-14T06:17:13;17.50;;;15.57;;
15645;SDS011;7922;43.622;1.476;2023-06-14T06:19:38;17.13;;;15.43;;
15645;SDS011;7922;43.622;1.476;2023-06-14T06:22:03;16.90;;;15.10;;
15645;SDS011;7922;43.622;1.476;2023-06-14T06:24:29;19.57;;;15.20;;
15645;SDS011;7922;43.622;1.476;2023-06-14T06:26:54;16.50;;;14.83;;
15645;SDS011;7922;43.622;1.476;2023-06-14T06:29:19;17.07;;;15.47;;
15645;SDS011;7922;43.622;1.476;2023-06-14T06:31:45;17.53;;;15.63;;
15645;SDS011;7922;43.622;1.476;2023-06-14T06:34:10;17.37;;;15.57;;
15645;SDS011;7922;43.622;1.476;2023-06-14T06:36:35;16.40;;;14.73;;
15645;SDS011;7922;43.622;1.476;2023-06-14T06:39:00;17.17;;;15.37;;
15645;SDS011;7922;43.622;1.476;2023-06-14T06:41:26;17.87;;;16.03;;
15645;SDS011;7922;43.622;1.476;2023-06-14T06:43:51;18.03;;;16.17;;
15645;SDS011;7922;43.622;1.476;2023-06-14T06:46:16;18.23;;;16.23;;
15645;SDS011;7922;43.622;1.476;2023-06-14T06:48:41;16.73;;;15.07;;
15645;SDS011;7922;43.622;1.476;2023-06-14T06:51:07;19.87;;;15.20;;
15645;SDS011;7922;43.622;1.476;2023-06-14T06:53:32;16.87;;;14.97;;
15645;SDS011;7922;43.622;1.476;2023-06-14T06:55:57;16.17;;;14.47;;
15645;SDS011;7922;43.622;1.476;2023-06-14T06:58:23;19.50;;;15.00;;
15645;SDS011;7922;43.622;1.476;2023-06-14T07:00:48;17.27;;;15.00;;
15645;SDS011;7922;43.622;1.476;2023-06-14T07:03:13;16.70;;;14.97;;
15645;SDS011;7922;43.622;1.476;2023-06-14T07:05:38;16.90;;;14.83;;
15645;SDS011;7922;43.622;1.476;2023-06-14T07:08:04;17.63;;;14.53;;
15645;SDS011;7922;43.622;1.476;2023-06-14T07:10:29;17.90;;;14.87;;
15645;SDS011;7922;43.622;1.476;2023-06-14T07:12:54;16.70;;;15.00;;
15645;SDS011;7922;43.622;1.476;2023-06-14T07:15:19;20.87;;;15.37;;
15645;SDS011;7922;43.622;1.476;2023-06-14T07:17:45;16.00;;;14.33;;
15645;SDS011;7922;43.622;1.476;2023-06-14T07:20:11;16.80;;;14.97;;
15645;SDS011;7922;43.622;1.476;2023-06-14T07:22:38;21.17;;;14.63;;
15645;SDS011;7922;43.622;1.476;2023-06-14T07:25:04;17.73;;;15.93;;
15645;SDS011;7922;43.622;1.476;2023-06-14T07:27:30;16.73;;;14.73;;
15645;SDS011;7922;43.622;1.476;2023-06-14T07:29:55;16.50;;;14.73;;
15645;SDS011;7922;43.622;1.476;2023-06-14T07:32:20;16.00;;;14.50;;
15645;SDS011;7922;43.622;1.476;2023-06-14T07:34:45;17.80;;;15.13;;
15645;SDS011;7922;43.622;1.476;2023-06-14T07:37:11;14.37;;;12.87;;
15645;SDS011;7922;43.622;1.476;2023-06-14T07:39:36;15.90;;;14.27;;
15645;SDS011;7922;43.622;1.476;2023-06-14T07:42:02;16.43;;;14.77;;
15645;SDS011;7922;43.622;1.476;2023-06-14T07:44:29;15.07;;;13.53;;
15645;SDS011;7922;43.622;1.476;2023-06-14T07:46:54;15.07;;;13.20;;
15645;SDS011;7922;43.622;1.476;2023-06-14T07:49:19;15.47;;;13.10;;
15645;SDS011;7922;43.622;1.476;2023-06-14T07:51:45;15.27;;;13.30;;
15645;SDS011;7922;43.622;1.476;2023-06-14T07:54:10;16.20;;;13.23;;
15645;SDS011;7922;43.622;1.476;2023-06-14T07:56:35;16.00;;;13.77;;
15645;SDS011;7922;43.622;1.476;2023-06-14T07:59:00;15.27;;;13.07;;
15645;SDS011;7922;43.622;1.476;2023-06-14T08:01:26;14.87;;;13.13;;
15645;SDS011;7922;43.622;1.476;2023-06-14T08:03:51;14.63;;;13.20;;
15645;SDS011;7922;43.622;1.476;2023-06-14T08:06:16;15.77;;;13.00;;
15645;SDS011;7922;43.622;1.476;2023-06-14T08:08:42;15.43;;;13.37;;
15645;SDS011;7922;43.622;1.476;2023-06-14T08:11:07;15.20;;;13.43;;
15645;SDS011;7922;43.622;1.476;2023-06-14T08:13:32;19.40;;;13.20;;
15645;SDS011;7922;43.622;1.476;2023-06-14T08:15:58;15.33;;;12.77;;
15645;SDS011;7922;43.622;1.476;2023-06-14T08:18:23;17.57;;;13.63;;
15645;SDS011;7922;43.622;1.476;2023-06-14T08:20:48;13.07;;;11.87;;
15645;SDS011;7922;43.622;1.476;2023-06-14T08:23:14;13.50;;;12.20;;
15645;SDS011;7922;43.622;1.476;2023-06-14T08:25:39;16.10;;;12.57;;
15645;SDS011;7922;43.622;1.476;2023-06-14T08:28:04;13.60;;;11.70;;
15645;SDS011;7922;43.622;1.476;2023-06-14T08:30:30;12.57;;;11.27;;
15645;SDS011;7922;43.622;1.476;2023-06-14T08:32:55;14.10;;;12.70;;
15645;SDS011;7922;43.622;1.476;2023-06-14T08:35:20;13.73;;;12.33;;
15645;SDS011;7922;43.622;1.476;2023-06-14T08:37:46;13.77;;;12.27;;
15645;SDS011;7922;43.622;1.476;2023-06-14T08:40:21;15.03;;;12.53;;
15645;SDS011;7922;43.622;1.476;2023-06-14T08:42:48;13.57;;;11.63;;
15645;SDS011;7922;43.622;1.476;2023-06-14T08:45:15;13.57;;;11.80;;
15645;SDS011;7922;43.622;1.476;2023-06-14T08:47:41;13.30;;;11.83;;
15645;SDS011;7922;43.622;1.476;2023-06-14T08:50:07;13.90;;;12.07;;
15645;SDS011;7922;43.622;1.476;2023-06-14T08:52:33;15.13;;;12.10;;
15645;SDS011;7922;43.622;1.476;2023-06-14T08:55:02;14.27;;;11.30;;
15645;SDS011;7922;43.622;1.476;2023-06-14T08:57:28;12.70;;;11.30;;
15645;SDS011;7922;43.622;1.476;2023-06-14T08:59:54;14.50;;;11.87;;
15645;SDS011;7922;43.622;1.476;2023-06-14T09:02:19;12.10;;;10.93;;
15645;SDS011;7922;43.622;1.476;2023-06-14T09:04:45;14.73;;;11.77;;
15645;SDS011;7922;43.622;1.476;2023-06-14T09:07:11;12.50;;;11.30;;
15645;SDS011;7922;43.622;1.476;2023-06-14T09:09:40;16.53;;;12.17;;
15645;SDS011;7922;43.622;1.476;2023-06-14T09:12:06;13.43;;;10.67;;
15645;SDS011;7922;43.622;1.476;2023-06-14T09:14:33;15.90;;;11.50;;
15645;SDS011;7922;43.622;1.476;2023-06-14T09:16:58;14.73;;;11.13;;
15645;SDS011;7922;43.622;1.476;2023-06-14T09:19:24;12.60;;;11.40;;
15645;SDS011;7922;43.622;1.476;2023-06-14T09:21:49;12.17;;;10.90;;
15645;SDS011;7922;43.622;1.476;2023-06-14T09:24:15;13.93;;;11.70;;
15645;SDS011;7922;43.622;1.476;2023-06-14T09:26:40;12.77;;;11.23;;
15645;SDS011;7922;43.622;1.476;2023-06-14T09:29:05;18.03;;;11.10;;
15645;SDS011;7922;43.622;1.476;2023-06-14T09:31:31;14.00;;;10.93;;
15645;SDS011;7922;43.622;1.476;2023-06-14T09:33:56;13.83;;;10.80;;
15645;SDS011;7922;43.622;1.476;2023-06-14T09:36:22;12.40;;;11.10;;
15645;SDS011;7922;43.622;1.476;2023-06-14T09:38:55;12.90;;;10.63;;
15645;SDS011;7922;43.622;1.476;2023-06-14T09:41:34;13.07;;;10.67;;
15645;SDS011;7922;43.622;1.476;2023-06-14T09:44:02;13.90;;;10.73;;
15645;SDS011;7922;43.622;1.476;2023-06-14T09:46:29;12.63;;;10.27;;
15645;SDS011;7922;43.622;1.476;2023-06-14T09:48:55;11.17;;;10.07;;
15645;SDS011;7922;43.622;1.476;2023-06-14T09:51:24;13.33;;;10.17;;
15645;SDS011;7922;43.622;1.476;2023-06-14T09:53:51;13.80;;;11.30;;
15645;SDS011;7922;43.622;1.476;2023-06-14T09:56:38;11.23;;;10.23;;
15645;SDS011;7922;43.622;1.476;2023-06-14T09:59:04;14.10;;;10.47;;
15645;SDS011;7922;43.622;1.476;2023-06-14T10:01:30;12.23;;;10.57;;
15645;SDS011;7922;43.622;1.476;2023-06-14T10:04:05;11.13;;;10.03;;
15645;SDS011;7922;43.622;1.476;2023-06-14T10:06:32;10.77;;;9.67;;
15645;SDS011;7922;43.622;1.476;2023-06-14T10:09:05;11.70;;;10.60;;
15645;SDS011;7922;43.622;1.476;2023-06-14T10:11:33;10.60;;;9.60;;
15645;SDS011;7922;43.622;1.476;2023-06-14T10:14:00;13.27;;;10.27;;
15645;SDS011;7922;43.622;1.476;2023-06-14T10:19:27;11.33;;;10.23;;
15645;SDS011;7922;43.622;1.476;2023-06-14T10:22:02;11.13;;;10.13;;
15645;SDS011;7922;43.622;1.476;2023-06-14T10:24:33;10.80;;;9.70;;
15645;SDS011;7922;43.622;1.476;2023-06-14T10:27:06;11.63;;;10.47;;
15645;SDS011;7922;43.622;1.476;2023-06-14T10:29:32;13.13;;;9.50;;
15645;SDS011;7922;43.622;1.476;2023-06-14T10:31:58;11.93;;;10.80;;
15645;SDS011;7922;43.622;1.476;2023-06-14T10:34:28;10.70;;;9.57;;
15645;SDS011;7922;43.622;1.476;2023-06-14T10:37:01;10.57;;;9.43;;
15645;SDS011;7922;43.622;1.476;2023-06-14T10:39:30;13.43;;;10.93;;
15645;SDS011;7922;43.622;1.476;2023-06-14T10:41:56;9.77;;;8.77;;
15645;SDS011;7922;43.622;1.476;2023-06-14T10:46:55;13.30;;;9.77;;
15645;SDS011;7922;43.622;1.476;2023-06-14T10:49:39;12.43;;;9.67;;
15645;SDS011;7922;43.622;1.476;2023-06-14T10:52:09;11.43;;;9.37;;
15645;SDS011;7922;43.622;1.476;2023-06-14T10:54:36;11.13;;;10.00;;
15645;SDS011;7922;43.622;1.476;2023-06-14T10:57:01;12.27;;;9.68;;
15645;SDS011;7922;43.622;1.476;2023-06-14T10:59:26;10.33;;;9.27;;
15645;SDS011;7922;43.622;1.476;2023-06-14T11:05:03;9.97;;;9.07;;
15645;SDS011;7922;43.622;1.476;2023-06-14T11:10:38;10.77;;;9.00;;
15645;SDS011;7922;43.622;1.476;2023-06-14T11:13:04;11.87;;;9.97;;
15645;SDS011;7922;43.622;1.476;2023-06-14T11:15:30;10.70;;;9.20;;
15645;SDS011;7922;43.622;1.476;2023-06-14T11:18:00;11.20;;;9.63;;
15645;SDS011;7922;43.622;1.476;2023-06-14T11:20:27;10.37;;;8.93;;
15645;SDS011;7922;43.622;1.476;2023-06-14T11:22:54;11.23;;;8.90;;
15645;SDS011;7922;43.622;1.476;2023-06-14T11:25:20;10.02;;;8.77;;
15645;SDS011;7922;43.622;1.476;2023-06-14T11:27:45;11.60;;;8.83;;
15645;SDS011;7922;43.622;1.476;2023-06-14T11:30:11;10.63;;;9.20;;
15645;SDS011;7922;43.622;1.476;2023-06-14T11:32:38;11.30;;;9.25;;
15645;SDS011;7922;43.622;1.476;2023-06-14T11:35:03;10.55;;;8.98;;
15645;SDS011;7922;43.622;1.476;2023-06-14T11:37:29;10.85;;;8.38;;
15645;SDS011;7922;43.622;1.476;2023-06-14T11:39:58;11.00;;;9.05;;
15645;SDS011;7922;43.622;1.476;2023-06-14T11:42:24;9.82;;;8.85;;
15645;SDS011;7922;43.622;1.476;2023-06-14T11:44:53;9.90;;;8.30;;
15645;SDS011;7922;43.622;1.476;2023-06-14T11:47:18;9.48;;;8.45;;
15645;SDS011;7922;43.622;1.476;2023-06-14T11:49:44;9.63;;;8.30;;
15645;SDS011;7922;43.622;1.476;2023-06-14T11:52:09;10.13;;;9.02;;
15645;SDS011;7922;43.622;1.476;2023-06-14T11:54:34;9.73;;;8.85;;
15645;SDS011;7922;43.622;1.476;2023-06-14T11:57:00;11.35;;;8.98;;
15645;SDS011;7922;43.622;1.476;2023-06-14T11:59:25;9.27;;;8.27;;
15645;SDS011;7922;43.622;1.476;2023-06-14T12:01:52;10.02;;;9.02;;
15645;SDS011;7922;43.622;1.476;2023-06-14T12:04:24;10.40;;;8.93;;
15645;SDS011;7922;43.622;1.476;2023-06-14T12:06:51;9.50;;;8.68;;
15645;SDS011;7922;43.622;1.476;2023-06-14T12:09:17;11.88;;;8.45;;
15645;SDS011;7922;43.622;1.476;2023-06-14T12:11:42;10.20;;;9.20;;
15645;SDS011;7922;43.622;1.476;2023-06-14T12:14:08;12.13;;;8.73;;
15645;SDS011;7922;43.622;1.476;2023-06-14T12:16:34;10.57;;;9.57;;
15645;SDS011;7922;43.622;1.476;2023-06-14T12:19:09;9.82;;;8.82;;
15645;SDS011;7922;43.622;1.476;2023-06-14T12:21:38;9.35;;;8.45;;
15645;SDS011;7922;43.622;1.476;2023-06-14T12:24:04;9.93;;;8.88;;
15645;SDS011;7922;43.622;1.476;2023-06-14T12:26:29;9.48;;;8.57;;
15645;SDS011;7922;43.622;1.476;2023-06-14T12:28:54;9.57;;;8.68;;
15645;SDS011;7922;43.622;1.476;2023-06-14T12:31:21;11.68;;;9.35;;
15645;SDS011;7922;43.622;1.476;2023-06-14T12:33:46;9.77;;;8.88;;
15645;SDS011;7922;43.622;1.476;2023-06-14T12:36:12;11.60;;;8.52;;
15645;SDS011;7922;43.622;1.476;2023-06-14T12:38:37;9.00;;;8.10;;
15645;SDS011;7922;43.622;1.476;2023-06-14T12:41:02;10.32;;;8.98;;
15645;SDS011;7922;43.622;1.476;2023-06-14T12:43:28;11.05;;;8.85;;
15645;SDS011;7922;43.622;1.476;2023-06-14T12:45:54;10.27;;;8.68;;
15645;SDS011;7922;43.622;1.476;2023-06-14T12:48:19;10.02;;;9.00;;
15645;SDS011;7922;43.622;1.476;2023-06-14T12:50:45;9.73;;;8.82;;
15645;SDS011;7922;43.622;1.476;2023-06-14T12:53:10;9.77;;;8.68;;
15645;SDS011;7922;43.622;1.476;2023-06-14T12:55:35;9.35;;;8.18;;
15645;SDS011;7922;43.622;1.476;2023-06-14T12:58:01;11.77;;;8.95;;
15645;SDS011;7922;43.622;1.476;2023-06-14T13:00:26;10.00;;;8.35;;
15645;SDS011;7922;43.622;1.476;2023-06-14T13:02:52;8.55;;;7.68;;
15645;SDS011;7922;43.622;1.476;2023-06-14T13:05:17;9.57;;;8.57;;
15645;SDS011;7922;43.622;1.476;2023-06-14T13:07:43;9.57;;;8.63;;
15645;SDS011;7922;43.622;1.476;2023-06-14T13:10:08;9.38;;;8.15;;
15645;SDS011;7922;43.622;1.476;2023-06-14T13:12:34;9.43;;;8.60;;
15645;SDS011;7922;43.622;1.476;2023-06-14T13:14:59;8.50;;;7.70;;
15645;SDS011;7922;43.622;1.476;2023-06-14T13:17:24;9.85;;;8.88;;
15645;SDS011;7922;43.622;1.476;2023-06-14T13:19:49;9.50;;;8.63;;
15645;SDS011;7922;43.622;1.476;2023-06-14T13:22:15;9.38;;;8.48;;
15645;SDS011;7922;43.622;1.476;2023-06-14T13:24:40;8.30;;;7.40;;
15645;SDS011;7922;43.622;1.476;2023-06-14T13:27:05;8.75;;;7.95;;
15645;SDS011;7922;43.622;1.476;2023-06-14T13:29:31;11.05;;;8.68;;
15645;SDS011;7922;43.622;1.476;2023-06-14T13:31:56;9.27;;;8.38;;
15645;SDS011;7922;43.622;1.476;2023-06-14T13:34:21;9.77;;;8.88;;
15645;SDS011;7922;43.622;1.476;2023-06-14T13:36:48;8.60;;;7.80;;
15645;SDS011;7922;43.622;1.476;2023-06-14T13:39:14;9.23;;;8.27;;
15645;SDS011;7922;43.622;1.476;2023-06-14T13:41:40;9.20;;;8.23;;
15645;SDS011;7922;43.622;1.476;2023-06-14T13:44:05;9.55;;;7.88;;
15645;SDS011;7922;43.622;1.476;2023-06-14T13:46:30;9.40;;;8.43;;
15645;SDS011;7922;43.622;1.476;2023-06-14T13:48:56;9.15;;;7.97;;
15645;SDS011;7922;43.622;1.476;2023-06-14T13:51:22;9.13;;;8.18;;
15645;SDS011;7922;43.622;1.476;2023-06-14T13:53:50;9.73;;;8.68;;
15645;SDS011;7922;43.622;1.476;2023-06-14T13:56:17;9.68;;;8.73;;
15645;SDS011;7922;43.622;1.476;2023-06-14T13:58:43;9.88;;;8.93;;
15645;SDS011;7922;43.622;1.476;2023-06-14T14:01:09;9.90;;;8.85;;
15645;SDS011;7922;43.622;1.476;2023-06-14T14:03:35;8.05;;;7.35;;
15645;SDS011;7922;43.622;1.476;2023-06-14T14:06:01;8.70;;;7.90;;
15645;SDS011;7922;43.622;1.476;2023-06-14T14:08:27;9.40;;;8.60;;
15645;SDS011;7922;43.622;1.476;2023-06-14T14:10:52;10.07;;;8.90;;
15645;SDS011;7922;43.622;1.476;2023-06-14T14:13:17;10.25;;;7.95;;
15645;SDS011;7922;43.622;1.476;2023-06-14T14:15:42;9.20;;;8.13;;
15645;SDS011;7922;43.622;1.476;2023-06-14T14:18:08;9.13;;;7.95;;
15645;SDS011;7922;43.622;1.476;2023-06-14T14:20:33;8.80;;;7.80;;
15645;SDS011;7922;43.622;1.476;2023-06-14T14:22:58;9.40;;;8.02;;
15645;SDS011;7922;43.622;1.476;2023-06-14T14:25:24;8.93;;;8.13;;
15645;SDS011;7922;43.622;1.476;2023-06-14T14:27:49;11.35;;;8.15;;
15645;SDS011;7922;43.622;1.476;2023-06-14T14:30:14;9.20;;;8.30;;
15645;SDS011;7922;43.622;1.476;2023-06-14T14:32:40;9.32;;;8.10;;
15645;SDS011;7922;43.622;1.476;2023-06-14T14:35:05;9.63;;;8.27;;
15645;SDS011;7922;43.622;1.476;2023-06-14T14:37:31;10.95;;;8.52;;
15645;SDS011;7922;43.622;1.476;2023-06-14T14:39:57;8.82;;;7.78;;
15645;SDS011;7922;43.622;1.476;2023-06-14T14:42:24;10.07;;;8.45;;
15645;SDS011;7922;43.622;1.476;2023-06-14T14:44:50;9.63;;;8.10;;
15645;SDS011;7922;43.622;1.476;2023-06-14T14:47:15;10.40;;;8.35;;
15645;SDS011;7922;43.622;1.476;2023-06-14T14:49:40;9.10;;;8.20;;
15645;SDS011;7922;43.622;1.476;2023-06-14T14:52:06;8.75;;;7.95;;
15645;SDS011;7922;43.622;1.476;2023-06-14T14:54:31;9.75;;;8.15;;
15645;SDS011;7922;43.622;1.476;2023-06-14T14:56:56;12.50;;;8.48;;
15645;SDS011;7922;43.622;1.476;2023-06-14T14:59:22;10.18;;;8.63;;
15645;SDS011;7922;43.622;1.476;2023-06-14T15:01:47;9.27;;;8.43;;